createdAt,value
2018-09-05T00:01:43.517Z,91.70
2018-09-05T00:04:12.472Z,91.70
2018-09-05T00:06:41.571Z,91.90
2018-09-05T00:09:10.845Z,92.20
2018-09-05T00:11:40.269Z,92.30
2018-09-05T00:14:09.674Z,92.40
2018-09-05T00:16:38.714Z,92.10
2018-09-05T00:19:07.752Z,91.70
2018-09-05T00:21:36.733Z,91.90
2018-09-05T00:24:05.780Z,91.90
2018-09-05T00:26:34.770Z,92.10
2018-09-05T00:29:03.768Z,92.40
2018-09-05T00:31:32.733Z,92.60
2018-09-05T00:34:01.708Z,92.80
2018-09-05T00:36:30.659Z,93.00
2018-09-05T00:38:59.618Z,92.50
2018-09-05T00:41:28.567Z,92.60
2018-09-05T00:43:57.602Z,92.50
2018-09-05T00:46:26.566Z,92.50
2018-09-05T00:48:55.568Z,92.70
2018-09-05T00:51:24.500Z,93.00
2018-09-05T00:53:53.453Z,93.10
2018-09-05T00:56:22.645Z,93.10
2018-09-05T00:58:51.601Z,93.30
2018-09-05T01:01:20.540Z,93.40
2018-09-05T01:03:49.481Z,92.80
2018-09-05T01:06:18.415Z,92.70
2018-09-05T01:08:47.445Z,92.90
2018-09-05T01:11:16.647Z,92.90
2018-09-05T01:13:45.593Z,93.10
2018-09-05T01:16:14.537Z,93.20
2018-09-05T01:18:51.696Z,93.10
2018-09-05T01:21:20.621Z,92.70
2018-09-05T01:23:49.593Z,92.60
2018-09-05T01:26:18.517Z,92.70
2018-09-05T01:28:47.488Z,92.80
2018-09-05T01:31:16.525Z,92.90
2018-09-05T01:33:45.480Z,93.20
2018-09-05T01:36:15.431Z,92.90
2018-09-05T01:38:45.485Z,92.40
2018-09-05T01:41:15.224Z,92.40
2018-09-05T01:43:44.593Z,92.90
2018-09-05T01:46:13.593Z,93.00
2018-09-05T01:48:42.565Z,93.50
2018-09-05T01:51:11.509Z,94.10
2018-09-05T01:53:40.486Z,94.20
2018-09-05T01:56:09.439Z,94.40
2018-09-05T01:58:38.441Z,94.30
2018-09-05T02:01:07.409Z,94.10
2018-09-05T02:03:36.376Z,93.50
2018-09-05T02:06:05.337Z,92.90
2018-09-05T02:08:34.358Z,93.00
2018-09-05T02:11:03.260Z,93.60
2018-09-05T02:13:32.232Z,93.50
2018-09-05T02:16:01.165Z,93.50
2018-09-05T02:18:30.133Z,93.50
2018-09-05T02:20:59.097Z,93.80
2018-09-05T02:23:28.068Z,94.20
2018-09-05T02:25:57.169Z,94.50
2018-09-05T02:28:26.157Z,94.60
2018-09-05T02:30:55.540Z,94.20
2018-09-05T02:33:24.863Z,94.20
2018-09-05T02:35:53.796Z,94.40
2018-09-05T02:38:22.781Z,94.60
2018-09-05T02:40:51.748Z,94.60
2018-09-05T02:43:26.198Z,94.50
2018-09-05T02:45:55.340Z,94.20
2018-09-05T02:48:24.342Z,94.20
2018-09-05T02:50:53.276Z,94.10
2018-09-05T02:53:22.244Z,94.10
2018-09-05T02:55:56.664Z,94.10
2018-09-05T02:58:25.628Z,94.00
2018-09-05T03:00:54.701Z,93.70
2018-09-05T03:03:23.662Z,93.30
2018-09-05T03:05:52.590Z,93.10
2018-09-05T03:08:21.620Z,93.40
2018-09-05T03:10:50.699Z,93.40
2018-09-05T03:13:19.691Z,93.40
2018-09-05T03:15:48.604Z,93.60
2018-09-05T03:18:17.631Z,93.80
2018-09-05T03:20:46.570Z,93.70
2018-09-05T03:23:16.251Z,93.80
2018-09-05T03:25:45.292Z,94.20
2018-09-05T03:28:14.265Z,94.20
2018-09-05T03:30:43.289Z,94.00
2018-09-05T03:33:12.255Z,94.10
2018-09-05T03:35:41.197Z,94.00
2018-09-05T03:38:10.592Z,93.90
2018-09-05T03:40:40.593Z,93.90
2018-09-05T03:43:09.548Z,94.00
2018-09-05T03:45:39.537Z,94.20
2018-09-05T03:48:11.013Z,94.40
2018-09-05T03:50:39.996Z,94.30
2018-09-05T03:53:09.744Z,94.50
2018-09-05T03:55:38.732Z,94.20
2018-09-05T03:58:07.840Z,93.90
2018-09-05T04:00:36.888Z,93.50
2018-09-05T04:03:06.240Z,93.20
2018-09-05T04:05:35.179Z,93.50
2018-09-05T04:08:04.201Z,93.70
2018-09-05T04:10:33.190Z,94.00
2018-09-05T04:13:02.115Z,94.40
2018-09-05T04:15:31.068Z,94.70
2018-09-05T04:17:59.993Z,94.70
2018-09-05T04:20:28.975Z,94.50
2018-09-05T04:22:57.982Z,93.70
2018-09-05T04:25:27.369Z,93.40
2018-09-05T04:27:56.312Z,93.50
2018-09-05T04:30:25.265Z,94.00
2018-09-05T04:32:54.204Z,94.00
2018-09-05T04:35:23.164Z,94.50
2018-09-05T04:37:55.029Z,94.90
2018-09-05T04:40:24.013Z,95.10
2018-09-05T04:42:53.648Z,95.20
2018-09-05T04:45:22.966Z,94.80
2018-09-05T04:47:51.896Z,94.20
2018-09-05T04:50:21.805Z,94.20
2018-09-05T04:52:50.801Z,94.30
2018-09-05T04:55:19.809Z,94.40
2018-09-05T04:57:49.479Z,93.80
2018-09-05T05:00:18.460Z,93.40
2018-09-05T05:02:48.040Z,93.60
2018-09-05T05:05:17.007Z,93.90
2018-09-05T05:07:46.038Z,94.10
2018-09-05T05:10:15.043Z,94.30
2018-09-05T05:12:43.982Z,94.60
2018-09-05T05:15:12.989Z,94.80
2018-09-05T05:17:41.929Z,94.70
2018-09-05T05:20:10.922Z,94.70
2018-09-05T05:22:39.865Z,94.80
2018-09-05T05:25:08.845Z,94.60
2018-09-05T05:27:37.802Z,94.40
2018-09-05T05:30:07.965Z,94.00
2018-09-05T05:32:36.957Z,93.70
2018-09-05T05:35:05.977Z,93.30
2018-09-05T05:37:34.936Z,93.00
2018-09-05T05:40:06.240Z,92.80
2018-09-05T05:42:36.122Z,93.20
2018-09-05T05:45:05.655Z,92.60
2018-09-05T05:47:35.034Z,92.40
2018-09-05T05:50:04.452Z,92.40
2018-09-05T05:52:33.413Z,92.30
2018-09-05T05:55:03.180Z,92.10
2018-09-05T05:57:32.147Z,91.90
2018-09-05T06:00:01.127Z,91.30
2018-09-05T06:02:30.105Z,90.70
2018-09-05T06:04:59.097Z,90.10
2018-09-05T06:07:28.114Z,88.70
2018-09-05T06:09:57.033Z,86.30
2018-09-05T06:12:27.770Z,83.70
2018-09-05T06:14:56.736Z,81.50
2018-09-05T06:20:00.326Z,72.70
2018-09-05T06:22:29.547Z,71.90
2018-09-05T06:24:58.501Z,69.00
2018-09-05T06:27:27.564Z,65.60
2018-09-05T06:29:56.508Z,62.90
2018-09-05T06:37:22.724Z,96.00
2018-09-05T06:39:51.731Z,94.80
2018-09-05T06:42:20.795Z,53.40
2018-09-05T06:44:49.794Z,52.80
2018-09-05T06:47:18.713Z,51.80
2018-09-05T06:49:47.638Z,50.80
2018-09-05T06:52:16.631Z,49.60
2018-09-05T06:54:45.565Z,48.60
2018-09-05T06:57:14.608Z,47.10
2018-09-05T06:59:43.544Z,46.30
2018-09-05T07:02:12.483Z,44.70
2018-09-05T07:04:41.449Z,43.80
2018-09-05T07:07:10.516Z,43.00
2018-09-05T07:09:39.606Z,41.90
2018-09-05T07:12:08.836Z,40.80
2018-09-05T07:14:37.872Z,40.00
2018-09-05T07:17:07.113Z,40.00
2018-09-05T07:19:36.026Z,38.90
2018-09-05T07:22:05.124Z,38.50
2018-09-05T07:24:34.045Z,38.10
2018-09-05T07:27:02.985Z,38.20
2018-09-05T07:29:31.951Z,38.50
2018-09-05T07:32:00.914Z,39.20
2018-09-05T07:34:29.863Z,40.20
2018-09-05T07:36:58.835Z,41.80
2018-09-05T07:39:28.427Z,43.40
2018-09-05T07:41:57.433Z,45.00
2018-09-05T07:44:26.387Z,46.20
2018-09-05T07:46:55.337Z,47.30
2018-09-05T07:49:24.313Z,48.30
2018-09-05T07:51:53.256Z,66.10
2018-09-05T07:54:22.245Z,49.80
2018-09-05T07:56:51.225Z,49.90
2018-09-05T07:59:20.204Z,50.60
2018-09-05T08:01:49.132Z,51.20
2018-09-05T08:04:18.133Z,51.40
2018-09-05T08:06:48.019Z,51.00
2018-09-05T08:09:16.971Z,51.60
2018-09-05T08:11:46.721Z,52.20
2018-09-05T08:14:19.177Z,52.30
2018-09-05T08:16:48.115Z,51.60
2018-09-05T08:19:17.065Z,51.20
2018-09-05T08:21:45.986Z,50.20
2018-09-05T08:24:14.984Z,49.40
2018-09-05T08:26:43.946Z,49.90
2018-09-05T08:29:12.955Z,50.80
2018-09-05T08:31:41.853Z,50.80
2018-09-05T08:34:10.820Z,51.90
2018-09-05T08:36:40.019Z,53.00
2018-09-05T08:39:11.197Z,53.60
2018-09-05T08:41:40.145Z,54.70
2018-09-05T08:44:09.159Z,55.80
2018-09-05T08:46:38.064Z,56.10
2018-09-05T08:49:07.025Z,56.90
2018-09-05T08:51:36.539Z,57.10
2018-09-05T08:54:07.703Z,57.50
2018-09-05T08:56:36.632Z,57.90
2018-09-05T08:59:05.606Z,58.80
2018-09-05T09:01:34.954Z,59.20
2018-09-05T09:04:04.045Z,59.10
2018-09-05T09:06:32.986Z,59.20
2018-09-05T09:09:02.069Z,58.60
2018-09-05T09:11:31.017Z,58.20
2018-09-05T09:13:59.985Z,58.60
2018-09-05T09:16:28.956Z,58.20
2018-09-05T09:18:57.964Z,58.30
2018-09-05T09:21:26.888Z,58.30
2018-09-05T09:23:55.914Z,57.90
2018-09-05T09:26:24.956Z,58.20
2018-09-05T09:28:54.622Z,58.00
2018-09-05T09:31:23.578Z,58.10
2018-09-05T09:33:52.605Z,58.60
2018-09-05T09:36:22.355Z,58.20
2018-09-05T09:38:51.409Z,58.10
2018-09-05T09:41:20.330Z,58.50
2018-09-05T09:43:49.321Z,58.70
2018-09-05T09:46:18.641Z,59.30
2018-09-05T09:48:47.793Z,59.80
2018-09-05T09:51:16.791Z,60.10
2018-09-05T09:53:45.759Z,60.00
2018-09-05T09:56:15.069Z,59.60
2018-09-05T09:58:44.151Z,58.90
2018-09-05T10:01:18.618Z,59.50
2018-09-05T10:03:53.284Z,59.80
2018-09-05T10:06:27.789Z,60.00
2018-09-05T10:09:02.041Z,59.90
2018-09-05T10:11:36.349Z,59.90
2018-09-05T10:14:17.111Z,60.70
2018-09-05T10:16:51.803Z,61.30
2018-09-05T10:19:20.877Z,61.00
2018-09-05T10:21:49.861Z,61.20
2018-09-05T10:24:18.810Z,60.80
2018-09-05T10:26:47.759Z,60.90
2018-09-05T10:29:16.711Z,60.20
2018-09-05T10:31:45.688Z,61.40
2018-09-05T10:34:14.633Z,61.30
2018-09-05T10:36:43.565Z,61.10
2018-09-05T10:39:12.536Z,61.10
2018-09-05T10:41:41.516Z,61.20
2018-09-05T10:44:10.934Z,60.30
2018-09-05T10:46:39.867Z,59.80
2018-09-05T10:49:09.224Z,59.90
2018-09-05T10:51:43.374Z,60.20
2018-09-05T10:54:12.441Z,60.40
2018-09-05T10:56:41.388Z,61.00
2018-09-05T10:59:10.357Z,61.60
2018-09-05T11:01:39.365Z,61.70
2018-09-05T11:04:08.308Z,62.10
2018-09-05T11:06:37.757Z,61.80
2018-09-05T11:09:09.236Z,61.50
2018-09-05T11:11:39.175Z,61.40
2018-09-05T11:14:08.883Z,61.10
2018-09-05T11:16:37.937Z,61.40
2018-09-05T11:19:07.153Z,61.90
2018-09-05T11:21:36.202Z,60.50
2018-09-05T11:24:05.282Z,60.00
2018-09-05T11:26:34.231Z,59.50
2018-09-05T11:29:03.180Z,60.10
2018-09-05T11:31:32.905Z,60.50
2018-09-05T11:34:01.836Z,62.30
2018-09-05T11:36:30.949Z,62.80
2018-09-05T11:39:00.084Z,62.70
2018-09-05T11:41:29.054Z,61.60
2018-09-05T11:43:58.034Z,62.60
2018-09-05T11:46:27.012Z,61.60
2018-09-05T11:48:55.937Z,62.40
2018-09-05T11:51:25.028Z,61.70
2018-09-05T11:53:53.983Z,62.20
2018-09-05T11:56:22.948Z,61.30
2018-09-05T11:58:51.869Z,61.60
2018-09-05T12:01:20.856Z,61.50
2018-09-05T12:03:49.868Z,61.20
2018-09-05T12:06:18.861Z,60.70
2018-09-05T12:08:47.809Z,60.70
2018-09-05T12:11:16.774Z,60.40
2018-09-05T12:13:45.689Z,60.90
2018-09-05T12:16:14.720Z,60.50
2018-09-05T12:18:43.724Z,60.40
2018-09-05T12:21:12.643Z,61.10
2018-09-05T12:23:41.666Z,60.80
2018-09-05T12:26:10.593Z,59.50
2018-09-05T12:28:39.565Z,59.20
2018-09-05T12:31:08.502Z,59.30
2018-09-05T12:33:37.469Z,58.80
2018-09-05T12:36:06.437Z,59.00
2018-09-05T12:38:35.443Z,59.60
2018-09-05T12:41:04.464Z,61.20
2018-09-05T12:43:33.511Z,61.20
2018-09-05T12:46:02.441Z,62.30
2018-09-05T12:48:31.445Z,61.20
2018-09-05T12:51:00.405Z,61.30
2018-09-05T12:53:29.377Z,60.40
2018-09-05T12:55:58.304Z,59.50
2018-09-05T12:58:27.273Z,58.50
2018-09-05T13:00:56.225Z,59.00
2018-09-05T13:03:25.173Z,59.40
2018-09-05T13:05:54.109Z,59.50
2018-09-05T13:08:23.065Z,60.30
2018-09-05T13:10:52.004Z,59.70
2018-09-05T13:13:21.710Z,59.40
2018-09-05T13:15:52.873Z,58.70
2018-09-05T13:18:21.832Z,59.50
2018-09-05T13:20:50.777Z,59.60
2018-09-05T13:23:19.741Z,59.60
2018-09-05T13:25:48.674Z,58.30
2018-09-05T13:28:17.625Z,58.90
2018-09-05T13:30:46.577Z,59.70
2018-09-05T13:33:15.592Z,59.50
2018-09-05T13:35:44.513Z,58.00
2018-09-05T13:38:13.465Z,58.70
2018-09-05T13:40:42.421Z,59.10
2018-09-05T13:43:11.394Z,58.60
2018-09-05T13:45:40.324Z,58.80
2018-09-05T13:48:09.263Z,58.50
2018-09-05T13:50:38.524Z,57.70
2018-09-05T13:53:07.487Z,58.60
2018-09-05T13:55:36.433Z,59.00
2018-09-05T13:58:05.763Z,58.30
2018-09-05T14:00:34.726Z,58.10
2018-09-05T14:03:03.641Z,57.80
2018-09-05T14:05:32.588Z,58.00
2018-09-05T14:08:01.545Z,58.90
2018-09-05T14:10:30.500Z,58.40
2018-09-05T14:12:59.433Z,57.20
2018-09-05T14:15:28.385Z,57.50
2018-09-05T14:17:57.371Z,57.60
2018-09-05T14:20:26.373Z,58.00
2018-09-05T14:22:55.285Z,57.70
2018-09-05T14:25:24.233Z,58.00
2018-09-05T14:27:53.180Z,58.20
2018-09-05T14:30:22.154Z,58.70
2018-09-05T14:32:51.107Z,58.40
2018-09-05T14:35:20.065Z,58.90
2018-09-05T14:37:49.046Z,58.70
2018-09-05T14:40:18.012Z,58.50
2018-09-05T14:42:46.950Z,58.60
2018-09-05T14:45:15.888Z,58.70
2018-09-05T14:47:44.849Z,59.00
2018-09-05T14:50:14.697Z,58.80
2018-09-05T14:52:44.090Z,58.90
2018-09-05T14:55:13.069Z,59.10
2018-09-05T14:57:41.992Z,59.50
2018-09-05T15:00:10.925Z,59.30
2018-09-05T15:02:39.919Z,59.00
2018-09-05T15:05:10.425Z,59.30
2018-09-05T15:07:42.373Z,59.60
2018-09-05T15:10:11.305Z,59.50
2018-09-05T15:12:40.906Z,59.50
2018-09-05T15:15:09.896Z,59.50
2018-09-05T15:17:38.859Z,58.90
2018-09-05T15:20:09.992Z,58.30
2018-09-05T15:22:39.385Z,57.90
2018-09-05T15:25:19.862Z,58.50
2018-09-05T15:27:49.071Z,58.50
2018-09-05T15:30:18.029Z,58.80
2018-09-05T15:32:47.250Z,58.90
2018-09-05T15:35:16.321Z,58.80
2018-09-05T15:37:45.248Z,59.20
2018-09-05T15:40:14.192Z,59.10
2018-09-05T15:42:43.147Z,59.30
2018-09-05T15:45:12.081Z,59.80
2018-09-05T15:47:41.808Z,60.60
2018-09-05T15:53:11.542Z,61.00
2018-09-05T15:55:40.520Z,60.80
2018-09-05T15:58:09.589Z,61.10
2018-09-05T16:00:45.767Z,61.60
2018-09-05T16:03:15.071Z,61.10
2018-09-05T16:05:44.038Z,60.30
2018-09-05T16:08:13.140Z,60.90
2018-09-05T16:10:42.151Z,60.90
2018-09-05T16:13:11.249Z,60.90
2018-09-05T16:15:40.426Z,61.30
2018-09-05T16:18:09.175Z,62.00
2018-09-05T16:20:38.102Z,62.10
2018-09-05T16:23:07.398Z,61.80
2018-09-05T16:25:36.316Z,61.70
2018-09-05T16:28:08.854Z,61.90
2018-09-05T16:30:38.134Z,62.00
2018-09-05T16:33:07.156Z,61.90
2018-09-05T16:35:36.107Z,62.00
2018-09-05T16:38:05.154Z,70.90
2018-09-05T16:40:34.169Z,78.70
2018-09-05T16:43:03.360Z,62.40
2018-09-05T16:45:32.338Z,62.50
2018-09-05T16:48:01.396Z,62.60
2018-09-05T16:50:30.369Z,62.90
2018-09-05T16:52:59.524Z,63.00
2018-09-05T16:55:28.500Z,63.10
2018-09-05T16:57:57.542Z,62.80
2018-09-05T17:00:26.552Z,62.70
2018-09-05T17:02:55.548Z,63.10
2018-09-05T17:05:24.524Z,64.00
2018-09-05T17:07:53.557Z,91.50
2018-09-05T17:10:25.339Z,94.60
2018-09-05T17:12:54.332Z,98.10
2018-09-05T17:15:23.356Z,98.60
2018-09-05T17:17:52.393Z,98.50
2018-09-05T17:20:21.465Z,98.30
2018-09-05T17:22:50.482Z,98.40
2018-09-05T17:25:21.436Z,99.10
2018-09-05T17:27:50.532Z,99.40
2018-09-05T17:30:19.498Z,99.90
2018-09-05T17:32:49.046Z,99.90
2018-09-05T17:35:18.348Z,99.90
2018-09-05T17:37:47.336Z,93.20
2018-09-05T17:40:16.366Z,91.60
2018-09-05T17:42:45.371Z,91.90
2018-09-05T17:45:14.393Z,91.10
2018-09-05T17:47:43.369Z,93.20
2018-09-05T17:50:12.475Z,93.40
2018-09-05T17:52:41.464Z,92.40
2018-09-05T17:55:10.501Z,92.70
2018-09-05T17:57:39.464Z,92.90
2018-09-05T18:00:08.504Z,92.90
2018-09-05T18:02:37.545Z,93.20
2018-09-05T18:05:06.679Z,93.30
2018-09-05T18:07:35.721Z,93.50
2018-09-05T18:10:04.709Z,94.00
2018-09-05T18:12:33.780Z,68.30
2018-09-05T18:15:02.821Z,68.40
2018-09-05T18:17:31.803Z,68.70
2018-09-05T18:20:00.852Z,68.70
2018-09-05T18:22:29.961Z,69.20
2018-09-05T18:24:58.988Z,69.30
2018-09-05T18:27:27.994Z,69.30
2018-09-05T18:29:57.041Z,69.00
2018-09-05T18:32:26.112Z,69.20
2018-09-05T18:34:55.149Z,69.50
2018-09-05T18:37:24.339Z,69.40
2018-09-05T18:39:53.358Z,69.60
2018-09-05T18:42:23.125Z,69.90
2018-09-05T18:44:52.198Z,69.90
2018-09-05T18:47:21.195Z,70.70
2018-09-05T18:49:50.176Z,69.70
2018-09-05T18:52:19.169Z,69.40
2018-09-05T18:54:48.974Z,70.60
2018-09-05T18:57:17.953Z,70.00
2018-09-05T18:59:46.948Z,70.10
2018-09-05T19:02:15.964Z,70.60
2018-09-05T19:04:44.938Z,71.70
2018-09-05T19:07:14.025Z,71.60
2018-09-05T19:09:43.021Z,71.50
2018-09-05T19:12:13.465Z,71.60
2018-09-05T19:14:43.611Z,71.50
2018-09-05T19:17:12.611Z,71.10
2018-09-05T19:19:41.616Z,71.30
2018-09-05T19:22:10.652Z,71.90
2018-09-05T19:24:39.628Z,72.40
2018-09-05T19:27:08.633Z,72.60
2018-09-05T19:29:37.657Z,73.20
2018-09-05T19:32:06.658Z,73.40
2018-09-05T19:34:35.644Z,73.70
2018-09-05T19:37:04.821Z,73.80
2018-09-05T19:39:33.792Z,74.60
2018-09-05T19:42:02.967Z,74.10
2018-09-05T19:44:32.048Z,74.40
2018-09-05T19:47:01.073Z,74.50
2018-09-05T19:49:30.345Z,75.00
2018-09-05T19:51:59.365Z,75.20
2018-09-05T19:54:28.392Z,75.10
2018-09-05T19:56:58.103Z,75.50
2018-09-05T19:59:27.103Z,75.90
2018-09-05T20:01:56.092Z,76.30
2018-09-05T20:04:26.378Z,76.20
2018-09-05T20:06:55.447Z,76.50
2018-09-05T20:09:24.440Z,76.80
2018-09-05T20:11:53.546Z,76.90
2018-09-05T20:14:22.539Z,76.60
2018-09-05T20:16:51.652Z,77.40
2018-09-05T20:19:20.633Z,77.40
2018-09-05T20:21:49.559Z,77.40
2018-09-05T20:24:18.556Z,77.80
2018-09-05T20:26:47.517Z,77.90
2018-09-05T20:29:16.469Z,78.30
2018-09-05T20:31:45.422Z,78.60
2018-09-05T20:34:14.376Z,78.70
2018-09-05T20:36:43.436Z,78.80
2018-09-05T20:39:13.151Z,78.90
2018-09-05T20:41:42.235Z,79.00
2018-09-05T20:44:12.003Z,79.00
2018-09-05T20:46:41.374Z,80.10
2018-09-05T20:49:11.343Z,79.10
2018-09-05T20:51:40.442Z,79.30
2018-09-05T20:54:12.293Z,78.70
2018-09-05T20:56:45.716Z,79.30
2018-09-05T20:59:15.540Z,79.50
2018-09-05T21:01:44.601Z,79.30
2018-09-05T21:04:21.601Z,79.30
2018-09-05T21:06:57.136Z,79.10
2018-09-05T21:09:28.787Z,79.10
2018-09-05T21:11:57.763Z,79.30
2018-09-05T21:14:27.359Z,79.40
2018-09-05T21:16:56.372Z,79.50
2018-09-05T21:19:25.325Z,79.90
2018-09-05T21:21:54.533Z,80.60
2018-09-05T21:24:23.859Z,80.90
2018-09-05T21:26:52.846Z,81.70
2018-09-05T21:29:21.867Z,81.90
2018-09-05T21:31:53.761Z,82.00
2018-09-05T21:34:22.871Z,81.90
2018-09-05T21:36:52.687Z,80.90
2018-09-05T21:39:21.665Z,80.60
2018-09-05T21:41:50.728Z,81.10
2018-09-05T21:44:19.747Z,81.50
2018-09-05T21:46:48.869Z,81.80
2018-09-05T21:49:17.836Z,81.70
2018-09-05T21:51:46.824Z,81.20
2018-09-05T21:54:15.793Z,82.20
2018-09-05T21:56:44.773Z,82.50
2018-09-05T21:59:13.837Z,82.50
2018-09-05T22:01:42.911Z,82.70
2018-09-05T22:04:11.872Z,83.00
2018-09-05T22:06:40.911Z,83.00
2018-09-05T22:09:10.825Z,84.00
2018-09-05T22:11:39.859Z,84.20
2018-09-05T22:14:08.868Z,83.20
2018-09-05T22:16:37.914Z,83.10
2018-09-05T22:19:06.969Z,82.90
2018-09-05T22:21:36.060Z,84.10
2018-09-05T22:24:05.209Z,84.70
2018-09-05T22:26:34.154Z,85.40
2018-09-05T22:29:03.233Z,86.10
2018-09-05T22:31:33.082Z,86.30
2018-09-05T22:34:02.201Z,85.70
2018-09-05T22:36:31.192Z,86.00
2018-09-05T22:39:00.249Z,85.50
2018-09-05T22:41:29.487Z,85.90
2018-09-05T22:44:09.717Z,86.60
2018-09-05T22:46:49.895Z,87.00
2018-09-05T22:52:14.083Z,85.60
2018-09-05T22:55:25.928Z,84.80
2018-09-05T22:58:11.929Z,85.00
2018-09-05T23:00:49.932Z,86.90
2018-09-05T23:03:39.890Z,88.20
2018-09-05T23:06:23.505Z,88.70
2018-09-05T23:08:52.635Z,88.30
2018-09-05T23:12:01.479Z,86.80
2018-09-05T23:14:42.024Z,86.70
2018-09-05T23:17:22.920Z,86.80
2018-09-05T23:22:00.529Z,87.60
2018-09-05T23:24:29.493Z,88.60
2018-09-05T23:26:58.501Z,88.40
2018-09-05T23:29:27.501Z,87.60
2018-09-05T23:31:56.444Z,88.10
2018-09-05T23:34:25.416Z,88.10
2018-09-05T23:36:54.336Z,88.20
2018-09-05T23:39:23.507Z,87.40
2018-09-05T23:41:52.449Z,87.60
2018-09-05T23:44:21.396Z,88.20
2018-09-05T23:46:50.376Z,88.80
2018-09-05T23:49:20.037Z,88.20
2018-09-05T23:51:49.273Z,88.30
2018-09-05T23:54:18.435Z,86.80
2018-09-05T23:56:47.552Z,86.90
2018-09-05T23:59:17.568Z,87.90
